Terminal Aerodrome Forecast
Issued by NWS

Home | Current Version | Previous Version | Text Only | Print | Product List | Glossary On
Versions: 1 2 3 4 5 6 7 8 9 10 11 12 13 14 15 16 17 18 19 20 21 22 23 24 25 26
000
FTUS46 KSGX 301000 AAB
TAFSAN
TAF AMD
KSAN 301000Z 3010/3112 VRB04KT P6SM FEW010 SCT200
      TEMPO 3010/3014 BKN007
     FM302000 27009KT P6SM SCT200
     FM310200 VRB04KT P6SM FEW010 SCT200
     FM310600 VRB04KT P6SM OVC010=

USA.gov is the U.S. government's official web portal to all federal, state and local government web resources and services.